Time;durP1;ratioP1;P1;durP2;ratioP2;P2;SDS_P1;SDS_P2;PMS_P1;PMS_P2;Temp;Humidity;BMP_temperature;BMP_pressure;BME280_temperature;BME280_humidity;BME280_pressure;Samples;Min_cycle;Max_cycle;Signal;HPM_P1;HPM_P2
2022/03/06 00:00:00;;;;;;;27.67;13.60;;;;;;;-2.46;71.39;101495.34;5071700;28;20043;-57
2022/03/06 00:02:25;;;;;;;27.90;13.57;;;;;;;-2.48;71.39;101498.69;5075374;28;20078;-55
2022/03/06 00:04:51;;;;;;;27.08;12.38;;;;;;;-2.47;71.14;101504.75;5060949;28;20087;-57
2022/03/06 00:07:16;;;;;;;28.10;13.65;;;;;;;-2.49;70.94;101501.22;5055120;28;20052;-56
2022/03/06 00:09:42;;;;;;;33.83;15.60;;;;;;;-2.53;70.95;101496.72;5067591;28;20123;-56
2022/03/06 00:12:07;;;;;;;32.10;16.02;;;;;;;-2.58;70.44;101499.06;5073304;28;20040;-56
2022/03/06 00:14:33;;;;;;;29.27;14.23;;;;;;;-2.62;70.73;101496.28;5073963;28;20079;-56
2022/03/06 00:16:58;;;;;;;27.50;13.45;;;;;;;-2.67;70.19;101500.28;5067543;28;20392;-57
2022/03/06 00:19:24;;;;;;;34.78;14.95;;;;;;;-2.66;70.37;101500.38;5066070;28;20063;-55
2022/03/06 00:21:49;;;;;;;33.40;15.23;;;;;;;-2.68;70.14;101495.97;5069237;28;20122;-55
2022/03/06 00:24:15;;;;;;;29.75;13.88;;;;;;;-2.73;69.92;101494.03;5054965;28;20126;-56
2022/03/06 00:26:40;;;;;;;24.60;11.75;;;;;;;-2.78;69.91;101489.50;5055489;28;20044;-55
2022/03/06 00:29:06;;;;;;;32.05;14.63;;;;;;;-2.93;70.10;101494.75;5054837;28;20032;-56
2022/03/06 00:31:31;;;;;;;35.05;15.65;;;;;;;-3.04;70.02;101489.03;5057199;28;20044;-57
2022/03/06 00:33:57;;;;;;;58.20;21.38;;;;;;;-2.94;70.27;101492.09;5067004;28;20049;-56
2022/03/06 00:36:23;;;;;;;49.00;19.50;;;;;;;-2.92;70.05;101491.34;5057821;28;20053;-57
2022/03/06 00:38:48;;;;;;;46.15;18.08;;;;;;;-2.93;70.30;101479.31;5090136;28;20131;-57
2022/03/06 00:41:15;;;;;;;36.35;15.70;;;;;;;-2.87;70.30;101479.63;5071148;28;20037;-55
2022/03/06 00:43:41;;;;;;;37.75;16.77;;;;;;;-2.77;70.23;101481.84;5073250;28;20474;-56
2022/03/06 00:46:07;;;;;;;26.23;12.63;;;;;;;-2.77;70.23;101481.84;5067702;28;20547;-57
2022/03/06 00:48:32;;;;;;;26.88;13.00;;;;;;;-2.78;70.08;101474.94;5062847;28;20443;-57
2022/03/06 00:50:58;;;;;;;34.08;16.27;;;;;;;-2.79;69.90;101486.03;5066719;28;20115;-57
2022/03/06 00:53:24;;;;;;;39.20;16.63;;;;;;;-2.87;69.51;101483.88;5054640;28;20037;-56
2022/03/06 00:55:49;;;;;;;42.30;17.70;;;;;;;-2.97;69.31;101474.81;5054659;28;20037;-57
2022/03/06 00:58:15;;;;;;;26.63;13.45;;;;;;;-3.02;69.68;101481.44;5062063;28;20036;-57
2022/03/06 01:00:46;;;;;;;29.77;14.95;;;;;;;-3.04;70.25;101475.31;5070134;28;20455;-57
2022/03/06 01:03:15;;;;;;;27.77;13.13;;;;;;;-2.99;70.58;101473.88;5063946;28;20117;-56
2022/03/06 01:05:41;;;;;;;36.22;16.65;;;;;;;-2.89;70.21;101478.66;5052051;28;20029;-57
2022/03/06 01:08:07;;;;;;;34.42;15.55;;;;;;;-2.92;69.53;101473.34;5054964;28;20040;-56
2022/03/06 01:10:34;;;;;;;36.00;16.35;;;;;;;-2.90;69.96;101483.75;5038806;28;20067;-56
2022/03/06 01:13:00;;;;;;;35.03;16.65;;;;;;;-2.91;70.09;101469.09;5072868;28;20506;-57
2022/03/06 01:15:25;;;;;;;31.65;14.32;;;;;;;-2.86;69.91;101476.25;5057783;28;20032;-57
2022/03/06 01:17:51;;;;;;;38.17;17.58;;;;;;;-2.85;70.20;101478.00;5072789;28;20032;-57
2022/03/06 01:20:17;;;;;;;42.55;18.30;;;;;;;-2.85;69.81;101471.97;5067295;28;20048;-55
2022/03/06 01:22:45;;;;;;;33.35;15.48;;;;;;;-2.89;69.95;101476.09;5053715;28;20384;-55
2022/03/06 01:25:11;;;;;;;41.28;17.50;;;;;;;-2.89;70.01;101470.06;5070530;28;20036;-56
2022/03/06 01:27:37;;;;;;;48.67;20.35;;;;;;;-2.90;69.82;101474.31;5052385;28;20047;-57
2022/03/06 01:30:05;;;;;;;45.25;18.20;;;;;;;-2.86;69.60;101476.25;5069319;28;20044;-57
2022/03/06 01:32:34;;;;;;;38.10;16.55;;;;;;;-2.92;69.46;101463.06;5071877;28;20035;-56
2022/03/06 01:35:01;;;;;;;48.13;19.52;;;;;;;-2.95;69.74;101474.88;5086310;28;20065;-56
2022/03/06 01:37:26;;;;;;;37.50;17.13;;;;;;;-2.97;69.84;101472.25;5065973;28;20202;-57
2022/03/06 01:39:52;;;;;;;39.08;17.15;;;;;;;-2.96;69.62;101461.16;5050497;28;20136;-57
2022/03/06 01:42:18;;;;;;;38.20;17.33;;;;;;;-2.97;69.50;101460.28;5053438;28;20037;-55
2022/03/06 01:44:50;;;;;;;37.83;16.42;;;;;;;-2.91;69.58;101466.50;5054688;28;20083;-54
2022/03/06 01:47:40;;;;;;;42.83;17.15;;;;;;;-2.88;69.31;101457.25;5054291;28;20465;-56
2022/03/06 01:50:08;;;;;;;44.28;18.40;;;;;;;-2.88;69.25;101467.56;5052089;28;20044;-58
2022/03/06 01:52:34;;;;;;;35.80;16.58;;;;;;;-2.93;69.53;101458.72;5073317;28;20548;-56
2022/03/06 01:54:59;;;;;;;41.00;17.90;;;;;;;-2.94;69.37;101456.97;5072798;28;20115;-57
2022/03/06 01:57:25;;;;;;;36.70;16.58;;;;;;;-2.92;69.43;101462.19;5069738;28;20464;-57
2022/03/06 01:59:51;;;;;;;43.10;19.35;;;;;;;-2.90;69.37;101468.31;5052465;28;20064;-57
2022/03/06 02:02:18;;;;;;;45.30;21.20;;;;;;;-3.01;68.76;101466.06;5054707;28;20033;-57
2022/03/06 02:04:44;;;;;;;47.13;18.95;;;;;;;-3.06;69.04;101466.66;5071719;28;20037;-57
2022/03/06 02:07:09;;;;;;;34.92;16.48;;;;;;;-3.09;69.25;101456.19;5072904;28;20372;-60
2022/03/06 02:09:36;;;;;;;36.28;16.23;;;;;;;-3.16;69.73;101462.72;5035430;28;20025;-56
2022/03/06 02:14:46;;;;;;;33.78;14.95;;;;;;;-3.26;70.08;101461.38;5053342;28;20044;-57
2022/03/06 02:17:11;;;;;;;28.85;13.55;;;;;;;-3.32;70.35;101463.63;5052153;28;20037;-56
2022/03/06 02:20:00;;;;;;;32.85;15.20;;;;;;;-3.35;70.62;101462.56;5036466;28;20041;-55
2022/03/06 02:22:31;;;;;;;35.00;15.27;;;;;;;-3.37;70.81;101469.34;5051581;28;20472;-57
2022/03/06 02:24:58;;;;;;;41.97;18.92;;;;;;;-3.37;70.44;101467.66;5052916;28;20065;-57
2022/03/06 02:27:24;;;;;;;32.63;15.52;;;;;;;-3.39;70.34;101459.00;5057992;28;20036;-58
2022/03/06 02:29:50;;;;;;;34.85;15.15;;;;;;;-3.36;70.59;101465.94;5070469;28;20028;-57
2022/03/06 02:32:19;;;;;;;31.83;15.18;;;;;;;-3.34;70.45;101457.53;5058325;28;20041;-56
2022/03/06 02:34:47;;;;;;;37.28;16.92;;;;;;;-3.30;70.72;101462.03;5069916;28;20043;-57
2022/03/06 02:37:14;;;;;;;38.80;17.38;;;;;;;-3.24;70.31;101456.28;5071812;28;20361;-56
2022/03/06 02:39:43;;;;;;;34.17;16.08;;;;;;;-3.20;70.08;101453.06;5054611;28;20033;-57
2022/03/06 02:42:09;;;;;;;30.58;14.95;;;;;;;-3.20;70.13;101454.78;5054346;28;20040;-57
2022/03/06 02:44:35;;;;;;;35.42;16.70;;;;;;;-3.25;70.06;101452.84;5053794;28;20474;-57
2022/03/06 02:47:00;;;;;;;39.72;17.13;;;;;;;-3.26;70.21;101447.63;5059885;28;20047;-55
2022/03/06 02:49:25;;;;;;;30.15;13.80;;;;;;;-3.22;70.31;101440.16;5071430;28;20033;-57
2022/03/06 02:51:51;;;;;;;39.17;16.17;;;;;;;-3.16;69.98;101438.69;5054991;28;20033;-56
2022/03/06 02:54:17;;;;;;;32.63;15.30;;;;;;;-3.22;69.95;101444.44;5071269;28;20422;-55
2022/03/06 02:56:46;;;;;;;34.22;16.98;;;;;;;-3.22;69.96;101441.84;5068702;28;20041;-56
2022/03/06 02:59:12;;;;;;;29.70;14.45;;;;;;;-3.22;70.23;101437.59;5067447;28;20488;-56
2022/03/06 03:01:41;;;;;;;31.88;15.55;;;;;;;-3.16;69.93;101436.13;5057389;28;20045;-57
2022/03/06 03:04:10;;;;;;;37.40;16.08;;;;;;;-3.13;69.67;101439.72;5076123;28;20107;-56
2022/03/06 03:06:37;;;;;;;34.97;14.93;;;;;;;-3.17;69.09;101436.94;5041515;28;20434;-56
2022/03/06 03:09:07;;;;;;;30.90;14.18;;;;;;;-3.18;69.62;101432.63;5055141;28;20033;-54
2022/03/06 03:11:34;;;;;;;38.22;17.80;;;;;;;-3.17;69.55;101431.78;5055393;28;20046;-55
2022/03/06 03:14:01;;;;;;;37.80;16.63;;;;;;;-3.22;69.55;101440.16;5056533;28;20028;-57
2022/03/06 03:16:27;;;;;;;33.05;15.75;;;;;;;-3.24;69.91;101439.19;5058211;28;20037;-57
2022/03/06 03:18:52;;;;;;;33.47;16.15;;;;;;;-3.20;69.59;101434.19;5071603;28;20035;-56
2022/03/06 03:21:18;;;;;;;32.42;15.07;;;;;;;-3.12;69.43;101438.03;5056180;28;20114;-55
2022/03/06 03:23:49;;;;;;;32.67;15.13;;;;;;;-3.08;69.37;101437.38;5058624;28;20498;-55
2022/03/06 03:26:14;;;;;;;39.67;18.75;;;;;;;-3.12;69.00;101438.03;5054178;28;20041;-58
2022/03/06 03:28:40;;;;;;;39.65;18.58;;;;;;;-3.21;69.36;101428.19;5073043;28;20468;-57
2022/03/06 03:31:05;;;;;;;36.17;17.83;;;;;;;-3.24;69.41;101428.91;5073910;28;20036;-56
2022/03/06 03:33:30;;;;;;;29.75;14.27;;;;;;;-3.20;69.40;101431.63;5037829;28;20032;-56
2022/03/06 03:35:56;;;;;;;33.30;15.25;;;;;;;-3.23;69.40;101425.53;5071222;28;20053;-56
2022/03/06 03:38:22;;;;;;;35.05;16.52;;;;;;;-3.26;69.62;101422.81;5057071;28;20037;-57
2022/03/06 03:40:47;;;;;;;31.83;15.90;;;;;;;-3.24;69.50;101426.34;5066865;28;20041;-56
2022/03/06 03:43:13;;;;;;;37.80;15.55;;;;;;;-3.17;69.10;101424.09;5055750;28;20544;-55
2022/03/06 03:45:38;;;;;;;31.35;15.38;;;;;;;-3.22;68.98;101429.00;5055665;28;20033;-56
2022/03/06 03:48:04;;;;;;;36.55;16.50;;;;;;;-3.31;69.21;101429.41;5055662;28;20380;-59
2022/03/06 03:50:29;;;;;;;33.80;15.32;;;;;;;-3.31;69.48;101431.06;5056899;28;20120;-57
2022/03/06 03:52:55;;;;;;;35.45;16.48;;;;;;;-3.31;69.20;101423.38;5054180;28;20435;-55
2022/03/06 03:55:20;;;;;;;37.35;18.45;;;;;;;-3.35;69.35;101418.88;5073559;28;20051;-56
2022/03/06 03:57:46;;;;;;;34.58;16.10;;;;;;;-3.43;69.50;101428.78;5080358;28;20036;-55
2022/03/06 04:00:11;;;;;;;34.53;16.25;;;;;;;-3.49;69.56;101415.63;5056485;28;20425;-56
2022/03/06 04:02:37;;;;;;;37.42;16.42;;;;;;;-3.46;69.83;101426.06;5056180;28;20085;-57
2022/03/06 04:05:04;;;;;;;31.45;14.95;;;;;;;-3.43;69.95;101428.78;5064287;28;20033;-56
2022/03/06 04:07:29;;;;;;;39.17;18.40;;;;;;;-3.48;69.96;101427.66;5089879;28;20063;-55
2022/03/06 04:09:55;;;;;;;32.42;14.95;;;;;;;-3.48;70.16;101425.97;5074254;28;20121;-55
2022/03/06 04:12:21;;;;;;;33.97;16.20;;;;;;;-3.38;70.06;101432.47;5073773;28;20035;-56
2022/03/06 04:14:47;;;;;;;32.90;15.05;;;;;;;-3.36;69.47;101429.97;5037194;28;20503;-56
2022/03/06 04:17:12;;;;;;;27.45;14.50;;;;;;;-3.29;69.34;101422.66;5055883;28;20166;-54
2022/03/06 04:19:37;;;;;;;36.00;16.80;;;;;;;-3.35;68.96;101429.16;5067101;28;20040;-55
2022/03/06 04:22:03;;;;;;;48.35;20.52;;;;;;;-3.38;68.70;101422.19;5067532;28;20091;-56
2022/03/06 04:24:29;;;;;;;32.22;16.38;;;;;;;-3.42;69.17;101420.28;5055221;28;20033;-56
2022/03/06 04:26:54;;;;;;;34.88;16.92;;;;;;;-3.44;69.26;101419.28;5055546;28;20039;-54
2022/03/06 04:29:20;;;;;;;34.15;16.42;;;;;;;-3.47;69.41;101421.72;5055739;28;20167;-56
2022/03/06 04:31:46;;;;;;;41.05;19.42;;;;;;;-3.51;69.65;101417.22;5062771;28;20029;-55
2022/03/06 04:34:11;;;;;;;41.58;20.65;;;;;;;-3.59;69.69;101416.84;5073382;28;20044;-55
2022/03/06 04:36:37;;;;;;;40.08;18.20;;;;;;;-3.59;69.54;101419.41;5072219;28;20041;-55
2022/03/06 04:39:04;;;;;;;40.13;17.50;;;;;;;-3.49;69.68;101403.66;5073442;28;20556;-59
2022/03/06 04:41:30;;;;;;;38.53;17.48;;;;;;;-3.48;69.49;101409.66;5058921;28;20411;-58
2022/03/06 04:43:55;;;;;;;51.05;23.75;;;;;;;-3.47;69.39;101407.19;5065836;28;20043;-55
2022/03/06 04:46:21;;;;;;;43.25;19.90;;;;;;;-3.49;69.45;101413.03;5071729;28;20045;-55
2022/03/06 04:48:46;;;;;;;37.47;17.48;;;;;;;-3.51;69.37;101414.63;5072297;28;20460;-56
2022/03/06 04:51:12;;;;;;;34.08;16.00;;;;;;;-3.47;69.68;101408.88;5057455;28;20032;-56
2022/03/06 04:53:38;;;;;;;34.83;16.45;;;;;;;-3.41;69.55;101403.16;5054861;28;20423;-55
2022/03/06 04:56:04;;;;;;;38.90;16.95;;;;;;;-3.35;68.95;101400.88;5054640;28;20069;-57
2022/03/06 04:58:30;;;;;;;35.28;17.10;;;;;;;-3.29;69.06;101404.66;5068636;28;20037;-56
2022/03/06 05:00:55;;;;;;;39.03;18.45;;;;;;;-3.34;68.65;101392.41;5073016;28;20028;-57
2022/03/06 05:03:21;;;;;;;42.50;20.10;;;;;;;-3.38;69.09;101401.63;5054836;28;20476;-56
2022/03/06 05:05:47;;;;;;;37.90;17.83;;;;;;;-3.43;69.00;101402.19;5063761;28;20395;-57
2022/03/06 05:08:14;;;;;;;36.50;18.35;;;;;;;-3.50;69.47;101404.47;5065333;28;20029;-55
2022/03/06 05:10:39;;;;;;;44.03;21.25;;;;;;;-3.75;69.98;101415.16;5071902;28;20040;-56
2022/03/06 05:13:05;;;;;;;39.28;17.67;;;;;;;-3.89;70.54;101415.22;5072760;28;20028;-56
2022/03/06 05:15:31;;;;;;;38.00;17.92;;;;;;;-3.93;70.51;101411.63;5072642;28;20064;-56
2022/03/06 05:17:56;;;;;;;44.15;17.42;;;;;;;-3.91;70.32;101410.03;5074021;28;20037;-56
2022/03/06 05:20:22;;;;;;;45.75;18.90;;;;;;;-3.90;70.33;101409.22;5073335;28;20032;-57
2022/03/06 05:22:48;;;;;;;45.53;19.75;;;;;;;-3.90;70.18;101404.06;5074202;28;20047;-56
2022/03/06 05:25:14;;;;;;;49.35;19.58;;;;;;;-3.81;70.27;101406.25;5070189;28;20028;-56
2022/03/06 05:27:39;;;;;;;41.72;16.55;;;;;;;-3.74;70.22;101398.06;5071622;28;20032;-56
2022/03/06 05:30:08;;;;;;;34.35;15.05;;;;;;;-3.62;69.96;101395.25;5061904;28;20037;-57
2022/03/06 05:32:33;;;;;;;35.63;16.23;;;;;;;-3.52;69.71;101397.47;5052852;28;20068;-56
2022/03/06 05:34:59;;;;;;;41.25;18.48;;;;;;;-3.47;69.59;101393.47;5054521;28;20602;-59
2022/03/06 05:37:24;;;;;;;35.13;15.13;;;;;;;-3.43;69.57;101386.75;5050629;28;20480;-59
2022/03/06 05:39:50;;;;;;;30.92;15.40;;;;;;;-3.41;68.93;101378.34;5053363;28;20029;-59
2022/03/06 05:42:16;;;;;;;32.83;15.77;;;;;;;-3.35;69.02;101381.25;5060999;28;20502;-60
2022/03/06 05:44:42;;;;;;;34.35;16.38;;;;;;;-3.35;69.17;101381.25;5052191;28;20044;-57
2022/03/06 05:47:07;;;;;;;31.25;14.15;;;;;;;-3.26;68.92;101376.53;5069274;28;20411;-58
2022/03/06 05:49:33;;;;;;;37.40;14.98;;;;;;;-3.25;68.81;101380.00;5055495;28;20424;-59
2022/03/06 05:51:59;;;;;;;32.20;15.20;;;;;;;-3.27;68.44;101373.88;5051916;28;20040;-59
2022/03/06 05:54:24;;;;;;;39.85;17.75;;;;;;;-3.02;68.24;101373.44;5067488;28;20028;-57
2022/03/06 05:56:50;;;;;;;43.80;19.25;;;;;;;-2.99;67.17;101369.31;5073424;28;20036;-56
2022/03/06 05:59:15;;;;;;;31.73;14.73;;;;;;;-2.94;67.32;101369.53;5066805;28;20040;-55
2022/03/06 06:01:41;;;;;;;36.90;17.33;;;;;;;-2.86;67.33;101386.22;5074034;28;20464;-57
2022/03/06 06:04:06;;;;;;;35.00;17.27;;;;;;;-2.74;67.01;101383.34;5068060;28;20043;-58
2022/03/06 06:06:32;;;;;;;39.60;18.52;;;;;;;-2.69;66.86;101386.16;5067141;28;20040;-56
2022/03/06 06:08:57;;;;;;;31.85;14.50;;;;;;;-2.55;67.01;101374.81;5064862;28;20674;-55
2022/03/06 06:11:22;;;;;;;29.77;13.20;;;;;;;-2.42;66.31;101378.84;5058099;28;20041;-57
2022/03/06 06:13:48;;;;;;;30.67;14.90;;;;;;;-2.30;66.14;101377.72;5053963;28;20087;-57
2022/03/06 06:16:14;;;;;;;22.77;11.93;;;;;;;-2.18;66.07;101374.81;5060979;28;20488;-57
2022/03/06 06:18:40;;;;;;;23.90;11.05;;;;;;;-2.10;66.13;101378.63;5072929;28;20028;-54
2022/03/06 06:21:06;;;;;;;16.77;9.07;;;;;;;-2.08;66.32;101378.69;5061203;28;20037;-57
2022/03/06 06:23:32;;;;;;;23.85;11.88;;;;;;;-2.09;66.54;101376.94;5067982;28;20131;-55
2022/03/06 06:25:58;;;;;;;30.85;16.38;;;;;;;-2.06;67.13;101367.66;5058885;28;20506;-58
2022/03/06 06:28:23;;;;;;;26.20;12.60;;;;;;;-1.90;66.82;101371.81;5064430;28;20082;-57
2022/03/06 06:30:49;;;;;;;36.88;18.23;;;;;;;-1.73;66.67;101375.13;5039682;28;20371;-59
2022/03/06 06:33:15;;;;;;;36.30;19.35;;;;;;;-1.55;66.25;101373.34;5067838;28;20036;-57
2022/03/06 06:35:40;;;;;;;40.88;20.73;;;;;;;-1.36;65.98;101375.00;5072199;28;20048;-56
2022/03/06 06:38:06;;;;;;;46.75;24.75;;;;;;;-1.33;65.84;101379.41;5070828;28;20476;-56
2022/03/06 06:40:32;;;;;;;49.88;28.67;;;;;;;-1.30;65.98;101375.25;5069908;28;20036;-55
2022/03/06 06:42:58;;;;;;;46.25;24.45;;;;;;;-1.26;66.33;101366.84;5063297;28;20104;-55
2022/03/06 06:45:23;;;;;;;55.63;32.50;;;;;;;-1.22;66.32;101361.81;5060972;28;20035;-57
2022/03/06 06:47:49;;;;;;;52.75;30.23;;;;;;;-1.08;66.23;101365.81;5074478;28;20036;-55
2022/03/06 06:50:14;;;;;;;36.97;21.45;;;;;;;-0.94;66.31;101377.59;5074696;28;20063;-57
2022/03/06 06:52:39;;;;;;;46.60;27.92;;;;;;;-0.81;65.91;101371.22;5075866;28;20083;-58
2022/03/06 06:55:06;;;;;;;31.92;17.63;;;;;;;-0.67;65.77;101366.63;5065664;28;20037;-56
2022/03/06 06:57:32;;;;;;;29.02;15.98;;;;;;;-0.58;65.47;101364.41;5056618;28;20033;-56
2022/03/06 06:59:59;;;;;;;24.10;14.18;;;;;;;-0.44;65.19;101365.81;5055480;28;20501;-59
2022/03/06 07:02:24;;;;;;;23.90;12.80;;;;;;;-0.33;64.94;101374.84;5071722;28;20037;-55
2022/03/06 07:04:50;;;;;;;33.72;21.20;;;;;;;-0.20;64.71;101380.47;5075347;28;20174;-59
2022/03/06 07:07:15;;;;;;;24.27;13.48;;;;;;;-0.08;64.78;101370.59;5060575;28;20028;-56
2022/03/06 07:09:41;;;;;;;26.65;15.43;;;;;;;0.06;64.76;101371.13;5072453;28;20453;-55
2022/03/06 07:12:07;;;;;;;24.65;13.50;;;;;;;0.17;64.55;101368.13;5075900;28;20043;-59
2022/03/06 07:14:33;;;;;;;37.58;18.02;;;;;;;0.28;64.44;101378.84;5075134;28;20037;-58
2022/03/06 07:16:59;;;;;;;31.13;14.77;;;;;;;0.41;63.94;101375.00;5076549;28;20383;-56
2022/03/06 07:19:24;;;;;;;33.70;19.10;;;;;;;0.48;64.14;101382.16;5076041;28;20035;-57
2022/03/06 07:21:50;;;;;;;25.50;14.52;;;;;;;0.59;64.26;101375.63;5076437;28;20431;-58
2022/03/06 07:24:15;;;;;;;30.25;18.83;;;;;;;0.71;64.08;101380.34;5076045;28;20025;-57
2022/03/06 07:26:41;;;;;;;20.42;11.25;;;;;;;0.82;63.91;101383.28;5075103;28;20376;-54
2022/03/06 07:29:07;;;;;;;20.67;10.20;;;;;;;0.81;63.46;101381.53;5075000;28;20036;-57
2022/03/06 07:31:32;;;;;;;21.42;10.80;;;;;;;0.81;63.70;101381.53;5053840;28;20438;-57
2022/03/06 07:33:58;;;;;;;20.65;10.02;;;;;;;0.82;63.75;101383.28;5068815;28;20044;-57
2022/03/06 07:36:23;;;;;;;19.65;9.73;;;;;;;0.80;64.30;101380.66;5068016;28;20053;-59
2022/03/06 07:38:49;;;;;;;20.00;10.07;;;;;;;0.86;64.25;101386.03;5075105;28;20033;-58
2022/03/06 07:41:14;;;;;;;19.88;9.85;;;;;;;0.96;64.01;101389.81;5074847;28;20032;-59
2022/03/06 07:43:40;;;;;;;19.73;10.73;;;;;;;0.99;63.96;101390.78;5093905;28;20427;-55
2022/03/06 07:46:05;;;;;;;15.60;8.95;;;;;;;1.03;63.80;101389.19;5067133;28;20036;-57
2022/03/06 07:48:31;;;;;;;14.15;8.05;;;;;;;1.18;63.88;101389.69;5071851;28;20407;-56
2022/03/06 07:50:56;;;;;;;14.25;7.00;;;;;;;1.32;63.41;101392.72;5074753;28;20063;-57
2022/03/06 07:53:22;;;;;;;13.90;7.15;;;;;;;1.41;63.21;101386.97;5070505;28;20029;-57
2022/03/06 07:55:47;;;;;;;16.25;7.50;;;;;;;1.58;63.25;101390.94;5068049;28;20070;-57
2022/03/06 07:58:13;;;;;;;20.73;9.55;;;;;;;1.80;63.09;101392.50;5075448;28;20075;-59
2022/03/06 08:00:38;;;;;;;18.70;8.63;;;;;;;1.99;62.64;101391.31;5072615;28;20129;-58
2022/03/06 08:03:03;;;;;;;24.55;14.10;;;;;;;2.13;62.19;101390.00;5074976;28;20064;-57
2022/03/06 08:05:29;;;;;;;25.00;13.45;;;;;;;2.27;61.72;101397.28;5075371;28;20105;-58
2022/03/06 08:07:54;;;;;;;14.00;7.70;;;;;;;2.33;61.30;101394.88;5074918;28;20442;-58
2022/03/06 08:10:20;;;;;;;16.30;7.43;;;;;;;2.22;61.67;101395.44;5072122;28;20504;-59
2022/03/06 08:12:49;;;;;;;16.42;7.93;;;;;;;2.30;61.23;101390.47;5074604;28;20055;-58
2022/03/06 08:15:14;;;;;;;7.45;4.03;;;;;;;2.31;60.93;101400.00;5057172;28;20443;-58
2022/03/06 08:17:40;;;;;;;4.35;2.17;;;;;;;2.40;59.93;101402.00;5075251;28;20065;-58
2022/03/06 08:20:07;;;;;;;3.25;1.70;;;;;;;2.35;58.65;101399.25;5074988;28;20043;-58
2022/03/06 08:22:34;;;;;;;6.05;2.20;;;;;;;2.45;58.91;101395.22;5073720;28;20123;-58
2022/03/06 08:25:00;;;;;;;5.68;1.83;;;;;;;2.55;57.89;101401.53;5073350;28;20050;-59
2022/03/06 08:27:25;;;;;;;3.22;1.75;;;;;;;2.64;56.73;101401.78;5073080;28;20033;-59
2022/03/06 08:29:50;;;;;;;4.03;1.50;;;;;;;2.78;56.16;101404.75;5070197;28;20037;-60
2022/03/06 08:32:16;;;;;;;4.18;1.60;;;;;;;2.81;55.88;101399.63;5074630;28;20062;-58
2022/03/06 08:34:42;;;;;;;4.05;1.65;;;;;;;2.90;55.22;101405.94;5074603;28;20056;-65
2022/03/06 08:37:08;;;;;;;3.65;2.05;;;;;;;2.90;55.46;101400.75;5074270;28;20455;-64
2022/03/06 08:39:33;;;;;;;4.22;1.90;;;;;;;2.94;54.88;101399.09;5074523;28;20064;-62
2022/03/06 08:41:59;;;;;;;4.10;2.10;;;;;;;2.80;55.52;101398.75;5098888;28;20385;-60
2022/03/06 08:44:25;;;;;;;4.00;2.00;;;;;;;3.00;54.79;101399.28;5073244;28;20105;-61
2022/03/06 08:46:50;;;;;;;4.65;2.38;;;;;;;3.22;54.64;101398.06;5074356;28;20032;-60
2022/03/06 08:49:16;;;;;;;3.88;2.15;;;;;;;3.42;54.03;101389.03;5074267;28;20032;-60
2022/03/06 08:51:41;;;;;;;3.35;1.77;;;;;;;3.70;53.62;101393.16;5074417;28;20039;-60
2022/03/06 08:54:07;;;;;;;4.70;1.75;;;;;;;3.76;53.03;101394.16;5073047;28;20028;-61
2022/03/06 08:56:32;;;;;;;3.53;2.20;;;;;;;3.74;52.40;101383.69;5074537;28;20048;-60
2022/03/06 08:58:58;;;;;;;3.40;2.10;;;;;;;4.00;51.90;101379.06;5074258;28;20130;-60
2022/03/06 09:01:23;;;;;;;4.15;1.80;;;;;;;4.31;51.62;101372.78;5074470;28;20064;-60
2022/03/06 09:03:49;;;;;;;4.22;2.20;;;;;;;4.76;50.82;101381.41;5074163;28;20044;-60
2022/03/06 09:06:14;;;;;;;4.32;1.90;;;;;;;5.16;49.99;101373.44;5074064;28;20028;-61
2022/03/06 09:08:39;;;;;;;4.13;2.10;;;;;;;5.27;48.65;101368.41;5074094;28;20494;-60
2022/03/06 09:11:06;;;;;;;3.92;1.88;;;;;;;5.32;48.66;101373.69;5074215;28;20119;-61
2022/03/06 09:13:32;;;;;;;4.07;1.85;;;;;;;5.55;48.32;101371.41;5040261;28;20036;-61
2022/03/06 09:15:58;;;;;;;4.15;2.10;;;;;;;5.57;47.31;101378.38;5072989;28;20047;-61
2022/03/06 09:18:23;;;;;;;4.05;1.92;;;;;;;5.51;47.80;101373.09;5074177;28;20029;-61
2022/03/06 09:20:49;;;;;;;3.97;1.95;;;;;;;4.97;48.03;101381.78;5073733;28;20060;-60
2022/03/06 09:23:14;;;;;;;5.90;2.17;;;;;;;5.02;47.40;101374.03;5073824;28;20384;-61
2022/03/06 09:25:40;;;;;;;4.55;2.22;;;;;;;4.98;47.44;101375.72;5073838;28;20480;-60
2022/03/06 09:28:06;;;;;;;4.55;1.83;;;;;;;4.99;47.85;101376.59;5074288;28;20051;-60
2022/03/06 09:30:32;;;;;;;4.60;2.15;;;;;;;5.04;47.63;101368.00;5073939;28;20037;-60
2022/03/06 09:32:58;;;;;;;3.75;1.55;;;;;;;5.38;47.25;101373.75;5073863;28;20059;-60
2022/03/06 09:35:23;;;;;;;4.13;2.20;;;;;;;5.48;46.91;101362.63;5055627;28;20472;-60
2022/03/06 09:37:49;;;;;;;3.10;1.40;;;;;;;5.59;47.04;101368.88;5073744;28;20025;-61
2022/03/06 09:40:15;;;;;;;3.75;2.70;;;;;;;6.04;46.21;101372.13;5072383;28;20377;-60
2022/03/06 09:42:41;;;;;;;4.25;2.70;;;;;;;6.51;45.71;101367.44;5073651;28;20040;-60
2022/03/06 09:45:09;;;;;;;5.35;2.20;;;;;;;6.86;45.04;101369.53;5073606;28;20040;-60
2022/03/06 09:47:36;;;;;;;4.35;2.33;;;;;;;6.81;44.75;101372.09;5072276;28;20025;-60
2022/03/06 09:50:04;;;;;;;3.55;1.90;;;;;;;6.35;44.82;101370.75;5072415;28;20033;-60
2022/03/06 09:52:29;;;;;;;9.82;2.60;;;;;;;6.02;45.17;101372.06;5072290;28;20028;-61
2022/03/06 09:54:55;;;;;;;4.18;1.98;;;;;;;5.19;46.06;101373.47;5072869;28;20456;-60
2022/03/06 09:57:22;;;;;;;3.13;2.00;;;;;;;5.01;47.09;101378.38;5073493;28;20064;-60
2022/03/06 09:59:48;;;;;;;3.22;1.83;;;;;;;4.68;47.49;101379.53;5072702;28;20036;-60
2022/03/06 10:02:14;;;;;;;3.78;2.00;;;;;;;4.32;48.01;101381.47;5072238;28;20040;-60
2022/03/06 10:04:40;;;;;;;3.35;1.80;;;;;;;4.01;48.69;101379.94;5073495;28;20032;-60
2022/03/06 10:07:10;;;;;;;3.70;1.98;;;;;;;3.89;48.90;101377.97;5073285;28;20032;-60
2022/03/06 10:09:51;;;;;;;2.55;1.60;;;;;;;4.13;48.04;101369.78;5068822;28;20033;-60
2022/03/06 10:12:23;;;;;;;3.30;2.03;;;;;;;4.62;47.05;101376.81;5055465;28;20068;-60
2022/03/06 10:14:51;;;;;;;5.78;2.45;;;;;;;5.16;47.05;101368.22;5055975;28;20041;-63
2022/03/06 10:17:22;;;;;;;4.38;2.17;;;;;;;5.86;45.87;101367.50;5076328;28;20128;-61
2022/03/06 10:19:52;;;;;;;4.07;2.17;;;;;;;6.44;44.59;101362.16;5073854;28;20036;-61
2022/03/06 10:22:19;;;;;;;5.05;2.00;;;;;;;6.79;44.13;101370.34;5074483;28;20450;-61
2022/03/06 10:24:49;;;;;;;3.70;1.60;;;;;;;6.69;42.92;101376.31;5072170;28;20476;-60
2022/03/06 10:27:15;;;;;;;3.40;1.75;;;;;;;6.60;42.95;101369.28;5090644;28;20024;-61
2022/03/06 10:29:40;;;;;;;4.50;2.80;;;;;;;6.57;43.71;101374.47;5073086;28;20044;-61
2022/03/06 10:32:07;;;;;;;4.38;2.15;;;;;;;6.38;44.08;101371.66;5074309;28;20041;-61
2022/03/06 10:34:40;;;;;;;3.03;1.70;;;;;;;6.02;42.97;101359.03;5074057;28;20059;-61
2022/03/06 10:37:06;;;;;;;3.13;1.45;;;;;;;5.89;44.39;101362.31;5076605;28;20032;-60
2022/03/06 10:39:43;;;;;;;2.90;1.67;;;;;;;5.79;43.97;101365.69;5057993;28;20032;-60
2022/03/06 10:42:09;;;;;;;3.10;1.25;;;;;;;6.04;44.97;101369.50;5070753;28;20045;-60
2022/03/06 10:44:46;;;;;;;2.72;1.10;;;;;;;6.17;44.08;101359.22;5061078;28;20040;-61
2022/03/06 10:47:11;;;;;;;5.47;2.58;;;;;;;6.32;44.25;101357.66;5075195;28;20048;-61
2022/03/06 10:49:37;;;;;;;4.13;2.75;;;;;;;6.09;44.27;101365.22;5075380;28;20053;-60
2022/03/06 10:52:14;;;;;;;5.05;2.08;;;;;;;5.98;42.81;101358.97;5076286;28;20037;-61
2022/03/06 10:54:54;;;;;;;4.80;2.20;;;;;;;6.15;42.90;101353.13;5074361;28;20480;-61
2022/03/06 10:57:24;;;;;;;4.93;2.00;;;;;;;6.05;44.31;101355.59;5074562;28;20063;-62
2022/03/06 10:59:50;;;;;;;3.40;1.58;;;;;;;6.02;44.14;101348.59;5066637;28;20120;-61
2022/03/06 11:02:17;;;;;;;2.28;1.23;;;;;;;5.96;44.63;101348.53;5077394;28;20107;-61
2022/03/06 11:04:46;;;;;;;2.30;1.30;;;;;;;5.93;44.28;101344.16;5074120;28;20044;-62
2022/03/06 11:07:12;;;;;;;3.22;1.48;;;;;;;5.85;44.64;101347.47;5075533;28;20383;-61
2022/03/06 11:09:39;;;;;;;2.22;1.25;;;;;;;5.57;44.45;101344.50;5073844;28;20044;-60
2022/03/06 11:12:05;;;;;;;2.50;1.33;;;;;;;5.57;44.52;101339.28;5071957;28;20025;-61
2022/03/06 11:14:32;;;;;;;2.22;1.38;;;;;;;5.67;44.53;101346.41;5073119;28;20794;-61